Time;durP1;ratioP1;P1;durP2;ratioP2;P2;SDS_P1;SDS_P2;PMS_P1;PMS_P2;Temp;Humidity;BMP_temperature;BMP_pressure;BME280_temperature;BME280_humidity;BME280_pressure;Samples;Min_cycle;Max_cycle;Signal;HPM_P1;HPM_P2
2022/04/15 00:01:37;;;;;;;8.90;4.95;;;;;;;13.83;100.00;99872.50;4801773;29;20171;-88
2022/04/15 00:04:03;;;;;;;10.65;5.00;;;;;;;13.92;100.00;99880.25;4786360;29;20098;-86
2022/04/15 00:06:30;;;;;;;10.32;5.07;;;;;;;13.90;100.00;99877.00;4784727;29;20038;-89
2022/04/15 00:08:56;;;;;;;7.05;4.60;;;;;;;13.95;100.00;99879.84;4803682;29;20135;-88
2022/04/15 00:11:22;;;;;;;8.15;4.70;;;;;;;14.07;100.00;99880.94;4800878;29;20441;-88
2022/04/15 00:13:48;;;;;;;7.28;4.22;;;;;;;14.11;100.00;99895.38;4816406;29;20039;-87
2022/04/15 00:16:14;;;;;;;4.82;3.90;;;;;;;14.13;100.00;99895.97;4801768;29;20121;-86
2022/04/15 00:18:41;;;;;;;5.38;3.80;;;;;;;14.14;100.00;99892.34;4816824;29;20031;-89
2022/04/15 00:21:07;;;;;;;6.32;4.20;;;;;;;14.19;100.00;99893.59;4796511;29;20037;-89
2022/04/15 00:23:34;;;;;;;8.88;4.57;;;;;;;14.15;100.00;99893.16;4814111;29;20039;-89
2022/04/15 00:26:00;;;;;;;6.63;4.47;;;;;;;14.13;100.00;99888.06;4787295;29;20105;-86
2022/04/15 00:28:27;;;;;;;8.85;5.25;;;;;;;14.22;100.00;99909.03;4787402;29;20107;-88
2022/04/15 00:30:53;;;;;;;7.30;4.80;;;;;;;14.28;100.00;99908.25;4800437;29;20039;-88
2022/04/15 00:33:19;;;;;;;6.13;4.25;;;;;;;14.20;100.00;99882.81;4784369;29;20086;-87
2022/04/15 00:35:45;;;;;;;7.50;4.93;;;;;;;14.30;100.00;99908.84;4785148;29;20031;-87
2022/04/15 00:38:10;;;;;;;5.80;4.53;;;;;;;14.21;100.00;99891.56;4799086;29;20042;-87
2022/04/15 00:40:36;;;;;;;7.80;4.28;;;;;;;14.37;100.00;99917.63;4796298;29;20030;-89
2022/04/15 00:43:02;;;;;;;5.70;3.63;;;;;;;14.27;100.00;99888.94;4818940;29;20036;-86
2022/04/15 00:45:27;;;;;;;9.85;4.45;;;;;;;14.16;100.00;99870.22;4814322;29;20402;-88
2022/04/15 00:47:59;;;;;;;8.80;3.95;;;;;;;14.23;100.00;99889.53;4786002;29;20053;-88
2022/04/15 00:50:31;;;;;;;5.45;4.05;;;;;;;14.38;100.00;99905.22;4787406;29;20112;-86
2022/04/15 00:52:59;;;;;;;8.65;4.07;;;;;;;14.37;100.00;99909.72;4806472;29;20057;-86
2022/04/15 00:55:25;;;;;;;5.30;3.90;;;;;;;14.46;100.00;99922.72;4791808;29;20149;-88
2022/04/15 00:57:51;;;;;;;5.40;3.95;;;;;;;14.50;100.00;99923.94;4801499;29;20058;-88
2022/04/15 01:00:18;;;;;;;5.75;3.60;;;;;;;14.49;100.00;99917.03;4787410;29;20038;-87
2022/04/15 01:02:44;;;;;;;8.02;4.40;;;;;;;14.40;100.00;99914.59;4822127;29;20073;-88
2022/04/15 01:05:15;;;;;;;6.47;4.15;;;;;;;14.31;100.00;99894.63;4801113;29;20042;-88
2022/04/15 01:07:49;;;;;;;5.68;4.22;;;;;;;14.43;100.00;99914.19;4815989;29;20042;-87
2022/04/15 01:10:19;;;;;;;5.07;4.28;;;;;;;14.43;100.00;99913.38;4789595;29;20034;-87
2022/04/15 01:12:56;;;;;;;6.57;4.10;;;;;;;14.44;100.00;99904.41;4801709;29;20126;-86
2022/04/15 01:15:28;;;;;;;8.35;4.68;;;;;;;14.62;100.00;99922.38;4787565;29;20039;-87
2022/04/15 01:17:54;;;;;;;6.65;4.95;;;;;;;14.38;100.00;99898.13;4785612;29;20065;-87
2022/04/15 01:20:20;;;;;;;8.38;5.25;;;;;;;14.64;100.00;99925.63;4800943;29;20504;-88
2022/04/15 01:22:48;;;;;;;6.80;4.80;;;;;;;14.38;100.00;99882.28;4804905;29;20055;-87
2022/04/15 01:25:15;;;;;;;4.35;3.92;;;;;;;14.52;100.00;99900.78;4802412;29;20031;-88
2022/04/15 01:27:46;;;;;;;9.57;4.60;;;;;;;14.60;100.00;99913.00;4820290;29;20119;-88
2022/04/15 01:30:12;;;;;;;6.20;4.78;;;;;;;14.68;100.00;99923.41;4800488;29;20035;-87
2022/04/15 01:32:37;;;;;;;8.57;5.38;;;;;;;14.63;100.00;99913.44;4803539;29;20037;-88
2022/04/15 01:35:06;;;;;;;9.05;4.72;;;;;;;14.67;100.00;99922.59;4784324;29;20485;-87
2022/04/15 01:37:32;;;;;;;7.93;4.55;;;;;;;14.61;100.00;99907.53;4781293;29;20049;-87
2022/04/15 01:39:58;;;;;;;5.97;4.57;;;;;;;14.54;100.00;99904.88;4799617;29;20564;-88
2022/04/15 01:42:25;;;;;;;7.55;5.35;;;;;;;14.60;100.00;99927.03;4821117;29;20125;-86
2022/04/15 01:44:51;;;;;;;7.68;5.35;;;;;;;14.52;100.00;99921.94;4786497;29;20039;-88
2022/04/15 01:47:17;;;;;;;9.68;5.05;;;;;;;14.39;100.00;99904.22;4786514;29;20054;-88
2022/04/15 01:49:43;;;;;;;7.82;5.03;;;;;;;14.61;100.00;99933.97;4785863;29;20042;-87
2022/04/15 01:52:09;;;;;;;8.73;5.18;;;;;;;14.36;100.00;99871.09;4818107;29;20061;-86
2022/04/15 01:54:35;;;;;;;7.20;4.82;;;;;;;14.49;100.00;99880.88;4787099;29;20486;-87
2022/04/15 01:57:01;;;;;;;7.35;4.45;;;;;;;14.22;100.00;99880.00;4797765;29;20041;-89
2022/04/15 01:59:27;;;;;;;7.50;5.28;;;;;;;14.33;100.00;99897.88;4787087;29;20041;-87
2022/04/15 02:01:54;;;;;;;8.48;5.45;;;;;;;14.39;100.00;99920.88;4786706;29;20047;-88
2022/04/15 02:04:22;;;;;;;7.78;5.10;;;;;;;14.23;100.00;99911.47;4784595;29;20034;-87
2022/04/15 02:06:47;;;;;;;7.18;5.63;;;;;;;14.05;100.00;99890.88;4818168;29;20053;-86
2022/04/15 02:09:13;;;;;;;7.45;5.22;;;;;;;14.15;100.00;99916.91;4801314;29;20035;-88
2022/04/15 02:11:39;;;;;;;6.65;5.13;;;;;;;13.87;100.00;99898.50;4821741;29;20118;-86
2022/04/15 02:14:04;;;;;;;7.55;5.10;;;;;;;13.76;100.00;99911.25;4820338;29;20054;-86
2022/04/15 02:16:31;;;;;;;7.45;4.80;;;;;;;13.45;100.00;99885.25;4805087;29;20477;-86
2022/04/15 02:18:56;;;;;;;5.38;4.32;;;;;;;13.35;100.00;99911.94;4800619;29;20042;-86
2022/04/15 02:21:22;;;;;;;9.40;5.55;;;;;;;12.97;100.00;99882.25;4784089;29;20037;-87
2022/04/15 02:23:49;;;;;;;7.32;5.63;;;;;;;13.04;100.00;99902.56;4800588;29;20035;-88
2022/04/15 02:26:14;;;;;;;7.93;5.13;;;;;;;12.92;100.00;99903.06;4803875;29;20049;-87
2022/04/15 02:28:40;;;;;;;9.10;6.53;;;;;;;12.90;100.00;99934.06;4795527;29;20035;-87
2022/04/15 02:31:05;;;;;;;13.43;6.60;;;;;;;12.74;100.00;99926.38;4818253;29;20397;-86
2022/04/15 02:33:31;;;;;;;11.95;7.20;;;;;;;12.70;100.00;99936.50;4814602;29;20031;-88
2022/04/15 02:35:57;;;;;;;15.13;7.65;;;;;;;12.52;100.00;99902.66;4784011;29;20026;-87
2022/04/15 02:38:22;;;;;;;11.85;7.80;;;;;;;12.38;100.00;99894.63;4804261;29;20478;-88
2022/04/15 02:40:48;;;;;;;13.05;8.23;;;;;;;12.66;100.00;99938.69;4789868;29;20046;-88
2022/04/15 02:43:14;;;;;;;13.55;8.10;;;;;;;12.42;100.00;99898.50;4785499;29;20397;-87
2022/04/15 02:45:40;;;;;;;12.65;7.65;;;;;;;12.66;100.00;99930.78;4784141;29;20031;-87
2022/04/15 02:48:06;;;;;;;12.35;7.75;;;;;;;12.61;100.00;99927.06;4800745;29;20144;-87
2022/04/15 02:50:35;;;;;;;13.10;7.65;;;;;;;12.68;100.00;99943.78;4817778;29;20037;-85
2022/04/15 02:53:01;;;;;;;11.60;6.85;;;;;;;12.65;100.00;99937.03;4812484;29;20038;-87
2022/04/15 02:55:28;;;;;;;13.23;7.57;;;;;;;12.57;100.00;99937.97;4781999;29;20031;-87
2022/04/15 02:57:53;;;;;;;12.43;8.43;;;;;;;12.38;100.00;99907.78;4782897;29;20056;-88
2022/04/15 03:00:20;;;;;;;13.10;7.95;;;;;;;12.60;100.00;99938.59;4795358;29;20045;-84
2022/04/15 03:02:45;;;;;;;16.38;8.52;;;;;;;12.57;100.00;99948.50;4786702;29;20083;-85
2022/04/15 03:05:11;;;;;;;15.52;7.57;;;;;;;12.48;100.00;99947.00;4782703;29;20034;-88
2022/04/15 03:07:38;;;;;;;13.13;8.15;;;;;;;12.41;100.00;99941.66;4816039;29;20034;-87
2022/04/15 03:10:05;;;;;;;14.57;8.65;;;;;;;12.33;100.00;99914.59;4813240;29;20030;-87
2022/04/15 03:12:36;;;;;;;13.13;8.43;;;;;;;12.59;100.00;99943.06;4819678;29;20049;-87
2022/04/15 03:15:04;;;;;;;15.43;8.07;;;;;;;12.63;100.00;99946.97;4783238;29;20031;-86
2022/04/15 03:17:30;;;;;;;13.50;8.45;;;;;;;12.57;100.00;99945.88;4813953;29;20095;-88
2022/04/15 03:19:56;;;;;;;12.48;8.52;;;;;;;12.55;100.00;99939.16;4806497;29;20031;-87
2022/04/15 03:22:22;;;;;;;14.40;8.00;;;;;;;12.53;100.00;99954.31;4800785;29;20592;-87
2022/04/15 03:24:50;;;;;;;13.55;7.90;;;;;;;12.21;100.00;99901.91;4816513;29;20114;-88
2022/04/15 03:27:15;;;;;;;13.18;8.05;;;;;;;12.32;100.00;99934.84;4802717;29;20414;-88
2022/04/15 03:29:43;;;;;;;11.90;8.63;;;;;;;12.22;100.00;99923.78;4815963;29;20030;-87
2022/04/15 03:32:09;;;;;;;14.65;8.15;;;;;;;12.31;100.00;99935.84;4802577;29;20176;-86
2022/04/15 03:34:36;;;;;;;13.30;9.25;;;;;;;12.26;100.00;99946.91;4797186;29;20054;-86
2022/04/15 03:37:03;;;;;;;15.23;9.80;;;;;;;12.07;100.00;99921.16;4798778;29;20106;-88
2022/04/15 03:39:29;;;;;;;18.88;11.70;;;;;;;12.16;100.00;99940.28;4796464;29;20479;-87
2022/04/15 03:41:55;;;;;;;16.83;10.00;;;;;;;12.07;100.00;99927.25;4800740;29;20087;-87
2022/04/15 03:44:20;;;;;;;16.45;9.55;;;;;;;11.79;100.00;99891.03;4798066;29;20033;-87
2022/04/15 03:46:46;;;;;;;14.20;9.68;;;;;;;11.94;100.00;99919.97;4783176;29;20038;-89
2022/04/15 03:49:11;;;;;;;13.77;9.32;;;;;;;11.96;100.00;99938.19;4798874;29;20067;-86
2022/04/15 03:51:38;;;;;;;16.55;9.98;;;;;;;11.90;100.00;99936.28;4786137;29;20065;-88
2022/04/15 03:54:03;;;;;;;15.25;10.75;;;;;;;11.78;100.00;99928.81;4811832;29;20038;-87
2022/04/15 03:56:29;;;;;;;16.30;10.48;;;;;;;11.69;100.00;99935.16;4800479;29;20074;-88
2022/04/15 03:58:55;;;;;;;14.07;10.18;;;;;;;11.75;100.00;99938.91;4799678;29;20123;-88
2022/04/15 04:01:20;;;;;;;14.35;9.57;;;;;;;11.65;100.00;99928.66;4782979;29;20039;-87
2022/04/15 04:03:46;;;;;;;15.70;10.43;;;;;;;11.66;100.00;99935.53;4800846;29;20034;-87
2022/04/15 04:06:12;;;;;;;17.30;11.02;;;;;;;11.63;100.00;99930.63;4783800;29;20043;-87
2022/04/15 04:08:37;;;;;;;18.38;11.25;;;;;;;11.67;100.00;99943.22;4799022;29;20050;-86
2022/04/15 04:11:03;;;;;;;16.60;11.95;;;;;;;11.60;100.00;99915.22;4798173;29;20046;-86
2022/04/15 04:13:28;;;;;;;19.70;10.88;;;;;;;11.67;100.00;99934.53;4787289;29;20045;-87
2022/04/15 04:15:54;;;;;;;18.83;11.20;;;;;;;11.72;100.00;99945.34;4784242;29;20037;-86
2022/04/15 04:18:21;;;;;;;20.15;12.18;;;;;;;11.57;100.00;99916.38;4800893;29;20042;-87
2022/04/15 04:20:48;;;;;;;21.45;12.60;;;;;;;11.64;100.00;99925.19;4799276;29;20041;-86
2022/04/15 04:23:15;;;;;;;19.80;12.32;;;;;;;11.50;100.00;99903.13;4819551;29;20046;-87
2022/04/15 04:25:40;;;;;;;19.33;13.05;;;;;;;11.64;100.00;99927.81;4804493;29;20125;-87
2022/04/15 04:28:06;;;;;;;20.75;13.00;;;;;;;11.60;100.00;99923.91;4815348;29;20031;-87
2022/04/15 04:30:31;;;;;;;22.73;12.90;;;;;;;11.61;100.00;99940.53;4815700;29;20045;-87
2022/04/15 04:32:59;;;;;;;17.85;12.25;;;;;;;11.55;100.00;99942.84;4817192;29;20034;-86
2022/04/15 04:35:26;;;;;;;22.45;12.80;;;;;;;11.46;100.00;99936.03;4815157;29;20037;-87
2022/04/15 04:37:52;;;;;;;18.55;12.70;;;;;;;11.55;100.00;99945.47;4786177;29;20042;-87
2022/04/15 04:40:18;;;;;;;18.88;13.48;;;;;;;11.45;100.00;99939.66;4805932;29;20398;-86
2022/04/15 04:42:49;;;;;;;21.77;12.95;;;;;;;11.25;100.00;99911.25;4790546;29;20098;-86
2022/04/15 04:45:15;;;;;;;22.10;13.77;;;;;;;11.51;100.00;99954.72;4800244;29;20031;-86
2022/04/15 04:47:43;;;;;;;24.88;15.30;;;;;;;11.35;100.00;99931.19;4799318;29;20613;-87
2022/04/15 04:50:10;;;;;;;20.90;13.60;;;;;;;11.49;100.00;99955.88;4798999;29;20633;-87
2022/04/15 04:52:36;;;;;;;23.27;13.82;;;;;;;11.49;100.00;99946.19;4785834;29;20038;-86
2022/04/15 04:55:03;;;;;;;23.35;13.35;;;;;;;11.23;100.00;99951.84;4815233;29;20475;-84
2022/04/15 04:57:29;;;;;;;22.00;13.52;;;;;;;11.04;100.00;99938.16;4799922;29;20035;-84
2022/04/15 04:59:56;;;;;;;18.42;12.85;;;;;;;10.87;100.00;99932.22;4803055;29;20378;-84
2022/04/15 05:02:22;;;;;;;23.60;13.88;;;;;;;10.95;100.00;99949.75;4797981;29;20027;-84
2022/04/15 05:04:48;;;;;;;20.30;13.35;;;;;;;10.86;100.00;99948.97;4801700;29;20050;-85
2022/04/15 05:07:14;;;;;;;18.10;13.02;;;;;;;10.75;100.00;99931.81;4801357;29;20042;-84
2022/04/15 05:09:43;;;;;;;24.60;15.70;;;;;;;10.79;100.00;99946.22;4798380;29;20069;-84
2022/04/15 05:12:10;;;;;;;21.25;14.85;;;;;;;10.99;100.00;99959.69;4799030;29;20110;-84
2022/04/15 05:14:35;;;;;;;26.35;16.10;;;;;;;11.08;100.00;99957.03;4816749;29;20118;-84
2022/04/15 05:17:01;;;;;;;22.15;15.18;;;;;;;11.05;100.00;99950.31;4803006;29;20057;-84
2022/04/15 05:19:27;;;;;;;30.25;16.17;;;;;;;11.35;100.00;99965.38;4802574;29;20039;-84
2022/04/15 05:21:53;;;;;;;22.48;15.65;;;;;;;11.41;100.00;99965.50;4799649;29;20095;-84
2022/04/15 05:24:19;;;;;;;26.45;17.60;;;;;;;11.36;100.00;99959.13;4797673;29;20030;-85
2022/04/15 05:26:45;;;;;;;25.00;16.38;;;;;;;11.35;100.00;99945.19;4800948;29;20482;-84
2022/04/15 05:29:11;;;;;;;23.58;14.60;;;;;;;11.50;100.00;99968.06;4796723;29;20086;-85
2022/04/15 05:31:36;;;;;;;27.75;15.95;;;;;;;11.57;100.00;99980.28;4782547;29;20038;-84
2022/04/15 05:34:03;;;;;;;29.58;17.35;;;;;;;11.53;100.00;99968.50;4783518;29;20066;-84
2022/04/15 05:36:29;;;;;;;29.27;18.27;;;;;;;11.71;100.00;99977.88;4801982;29;20057;-83
2022/04/15 05:38:54;;;;;;;24.50;15.55;;;;;;;11.78;100.00;99973.53;4814930;29;20451;-84
2022/04/15 05:41:20;;;;;;;27.88;16.80;;;;;;;11.69;100.00;99961.47;4798755;29;20038;-85
2022/04/15 05:43:46;;;;;;;24.58;16.02;;;;;;;11.86;100.00;99973.47;4815756;29;20122;-84
2022/04/15 05:46:12;;;;;;;25.92;16.48;;;;;;;11.97;100.00;99981.91;4795451;29;20038;-84
2022/04/15 05:48:38;;;;;;;25.70;15.68;;;;;;;12.00;100.00;99973.69;4813530;29;20197;-83
2022/04/15 05:51:04;;;;;;;24.55;16.73;;;;;;;11.91;100.00;99957.16;4797833;29;20045;-85
2022/04/15 05:53:30;;;;;;;26.73;16.95;;;;;;;12.10;100.00;99968.97;4811320;29;20043;-85
2022/04/15 05:55:57;;;;;;;24.50;17.60;;;;;;;12.26;100.00;99972.44;4797764;29;20034;-83
2022/04/15 05:58:26;;;;;;;28.95;19.92;;;;;;;12.40;100.00;99984.78;4813342;29;20316;-85
2022/04/15 06:00:51;;;;;;;30.48;19.73;;;;;;;12.45;100.00;99980.78;4799453;29;20057;-89
2022/04/15 06:03:20;;;;;;;30.92;19.90;;;;;;;12.54;100.00;99990.19;4822264;29;20039;-86
2022/04/15 06:05:47;;;;;;;27.15;17.55;;;;;;;12.54;100.00;99975.22;4800419;29;20041;-89
2022/04/15 06:08:13;;;;;;;31.02;19.77;;;;;;;12.68;100.00;99991.97;4804625;29;20553;-86
2022/04/15 06:10:39;;;;;;;30.35;19.20;;;;;;;12.87;100.00;100002.94;4782294;29;20031;-82
2022/04/15 06:13:09;;;;;;;32.88;18.63;;;;;;;12.81;100.00;99985.25;4791300;29;20037;-82
2022/04/15 06:15:41;;;;;;;25.15;17.30;;;;;;;12.93;100.00;99988.22;4797352;29;20042;-84
2022/04/15 06:18:07;;;;;;;27.73;17.20;;;;;;;13.10;100.00;100009.88;4812514;29;20176;-84
2022/04/15 06:20:33;;;;;;;24.20;16.08;;;;;;;13.13;100.00;100009.47;4809047;29;20038;-83
2022/04/15 06:22:59;;;;;;;23.92;17.30;;;;;;;13.16;100.00;100003.84;4779913;29;20035;-84
2022/04/15 06:25:25;;;;;;;22.98;15.82;;;;;;;13.27;100.00;100005.19;4797441;29;20458;-84
2022/04/15 06:27:51;;;;;;;25.38;15.40;;;;;;;13.17;100.00;100004.66;4798856;29;20049;-83
2022/04/15 06:30:19;;;;;;;24.63;16.05;;;;;;;13.23;100.00;100015.28;4818700;29;20034;-84
2022/04/15 06:32:44;;;;;;;26.27;16.13;;;;;;;13.32;100.00;100020.41;4812219;29;20034;-82
2022/04/15 06:35:10;;;;;;;23.02;14.18;;;;;;;13.39;100.00;100008.13;4814833;29;20061;-84
2022/04/15 06:37:35;;;;;;;20.58;14.02;;;;;;;13.64;100.00;100020.94;4808347;29;20450;-83
2022/04/15 06:40:02;;;;;;;19.05;14.20;;;;;;;13.73;100.00;100014.50;4816814;29;20034;-83
2022/04/15 06:42:28;;;;;;;24.52;14.05;;;;;;;13.76;100.00;100019.44;4793477;29;20088;-82
2022/04/15 06:44:54;;;;;;;21.73;14.75;;;;;;;13.83;100.00;100020.28;4795220;29;20042;-83
2022/04/15 06:47:20;;;;;;;17.20;12.93;;;;;;;13.84;100.00;100024.56;4795506;29;20056;-82
2022/04/15 06:49:47;;;;;;;18.23;12.77;;;;;;;13.94;100.00;100026.88;4807286;29;20096;-82
2022/04/15 06:52:13;;;;;;;19.77;13.07;;;;;;;13.97;100.00;100034.41;4792663;29;20046;-82
2022/04/15 06:54:39;;;;;;;22.70;13.23;;;;;;;13.99;100.00;100034.22;4800469;29;20027;-82
2022/04/15 06:57:06;;;;;;;23.30;13.70;;;;;;;14.03;100.00;100034.63;4809087;29;20946;-82
2022/04/15 06:59:32;;;;;;;20.92;12.80;;;;;;;14.04;100.00;100031.81;4812472;29;20035;-81
2022/04/15 07:01:59;;;;;;;20.35;12.40;;;;;;;14.11;100.00;100043.22;4796605;29;20098;-82
2022/04/15 07:04:27;;;;;;;20.23;13.25;;;;;;;14.19;100.00;100044.88;4809571;29;20041;-82
2022/04/15 07:06:52;;;;;;;25.10;13.60;;;;;;;14.20;100.00;100029.88;4806791;29;20684;-82
2022/04/15 07:09:18;;;;;;;19.42;13.15;;;;;;;14.27;100.00;100036.00;4810518;29;20083;-82
2022/04/15 07:11:44;;;;;;;16.13;12.38;;;;;;;14.38;100.00;100029.34;4795365;29;20042;-81
2022/04/15 07:14:10;;;;;;;20.42;12.70;;;;;;;14.45;100.00;100034.69;4799800;29;20502;-85
2022/04/15 07:16:36;;;;;;;19.40;12.52;;;;;;;14.52;100.00;100032.88;4813306;29;20073;-84
2022/04/15 07:19:04;;;;;;;18.63;11.63;;;;;;;14.75;100.00;100037.91;4794639;29;20047;-83
2022/04/15 07:21:31;;;;;;;19.52;11.88;;;;;;;14.82;100.00;100017.59;4795782;29;20054;-83
2022/04/15 07:23:57;;;;;;;16.02;11.48;;;;;;;14.99;100.00;100023.34;4811647;29;20034;-83
2022/04/15 07:26:24;;;;;;;19.55;12.45;;;;;;;15.09;100.00;100027.44;4782733;29;20050;-83
2022/04/15 07:28:49;;;;;;;22.25;11.98;;;;;;;15.19;100.00;100030.50;4796113;29;20104;-83
2022/04/15 07:31:15;;;;;;;22.40;12.88;;;;;;;15.42;100.00;100043.34;4795210;29;20053;-85
2022/04/15 07:33:46;;;;;;;18.38;11.80;;;;;;;15.51;100.00;100035.22;4783467;29;20035;-85
2022/04/15 07:38:59;;;;;;;19.67;11.35;;;;;;;15.37;100.00;100015.91;4812808;29;20063;-85
2022/04/15 07:41:27;;;;;;;21.83;11.93;;;;;;;15.35;100.00;100010.78;4796643;29;20434;-83
2022/04/15 07:43:53;;;;;;;19.88;12.60;;;;;;;15.39;100.00;100003.28;4793933;29;20062;-83
2022/04/15 07:46:18;;;;;;;18.35;11.75;;;;;;;15.59;100.00;100015.69;4784466;29;20030;-83
2022/04/15 07:48:44;;;;;;;21.38;11.77;;;;;;;15.71;100.00;100022.00;4783186;29;20059;-82
2022/04/15 07:51:09;;;;;;;19.38;13.02;;;;;;;15.95;100.00;100046.28;4796719;29;20393;-81
2022/04/15 07:53:35;;;;;;;20.73;13.30;;;;;;;15.76;100.00;100046.03;4783238;29;20125;-80
2022/04/15 07:56:02;;;;;;;23.13;13.30;;;;;;;16.02;100.00;100046.25;4797982;29;20676;-79
2022/04/15 07:58:28;;;;;;;17.40;11.98;;;;;;;16.12;100.00;100041.34;4803322;29;20034;-81
2022/04/15 08:00:54;;;;;;;18.73;12.07;;;;;;;15.86;100.00;100027.09;4817657;29;20452;-81
2022/04/15 08:03:21;;;;;;;17.60;11.05;;;;;;;16.08;100.00;100042.78;4825385;29;20039;-81
2022/04/15 08:05:48;;;;;;;16.35;11.02;;;;;;;16.07;100.00;100039.31;4786039;29;20057;-83
2022/04/15 08:08:14;;;;;;;16.52;10.55;;;;;;;16.16;100.00;100057.66;4802204;29;20497;-83
2022/04/15 08:10:40;;;;;;;17.35;10.75;;;;;;;16.22;100.00;100019.72;4817016;29;20038;-82
2022/04/15 08:13:06;;;;;;;16.33;9.30;;;;;;;16.48;100.00;100023.31;4816714;29;20034;-82
2022/04/15 08:15:32;;;;;;;15.77;10.02;;;;;;;16.66;100.00;100052.59;4814302;29;20402;-81
2022/04/15 08:18:01;;;;;;;15.55;9.43;;;;;;;16.73;100.00;100046.50;4797907;29;20035;-82
2022/04/15 08:20:26;;;;;;;16.05;8.80;;;;;;;16.77;100.00;100035.22;4813235;29;20149;-82
2022/04/15 08:22:52;;;;;;;14.20;9.10;;;;;;;16.84;100.00;100045.81;4817774;29;20176;-82
2022/04/15 08:25:17;;;;;;;13.85;9.02;;;;;;;16.98;100.00;100055.38;4799850;29;20501;-83
2022/04/15 08:27:43;;;;;;;16.95;9.50;;;;;;;16.97;100.00;100053.72;4820138;29;20506;-83
2022/04/15 08:30:09;;;;;;;17.95;9.90;;;;;;;16.91;100.00;100043.97;4785178;29;20117;-83
2022/04/15 08:32:35;;;;;;;16.00;9.55;;;;;;;16.92;100.00;100058.03;4815303;29;20034;-83
2022/04/15 08:35:05;;;;;;;13.63;8.98;;;;;;;16.99;100.00;100054.34;4800045;29;20046;-82
2022/04/15 08:37:31;;;;;;;17.02;8.75;;;;;;;16.99;100.00;100046.38;4799964;29;20031;-82
2022/04/15 08:39:57;;;;;;;13.20;8.68;;;;;;;17.05;100.00;100049.22;4816152;29;20417;-84
2022/04/15 08:42:27;;;;;;;16.58;8.70;;;;;;;17.14;100.00;100063.88;4795426;29;20394;-85
2022/04/15 08:44:54;;;;;;;13.75;8.18;;;;;;;17.27;100.00;100069.06;4810100;29;20062;-83
2022/04/15 08:47:20;;;;;;;13.52;8.43;;;;;;;16.94;100.00;100059.44;4810433;29;20434;-87
2022/04/15 08:49:46;;;;;;;11.85;7.28;;;;;;;17.29;100.00;100066.22;4799921;29;20045;-85
2022/04/15 08:52:15;;;;;;;11.70;7.72;;;;;;;17.27;100.00;100068.28;4813946;29;20465;-85
2022/04/15 08:54:41;;;;;;;13.70;7.18;;;;;;;17.51;100.00;100056.09;4784652;29;20041;-86
2022/04/15 08:57:07;;;;;;;12.80;7.63;;;;;;;17.49;100.00;100065.28;4796112;29;20026;-84
2022/04/15 08:59:33;;;;;;;10.48;6.50;;;;;;;17.52;100.00;100044.44;4798359;29;20086;-87
2022/04/15 09:01:59;;;;;;;9.85;6.55;;;;;;;17.67;100.00;100057.38;4817474;29;20061;-85
2022/04/15 09:04:25;;;;;;;9.23;5.88;;;;;;;17.40;100.00;100062.06;4819705;29;20501;-86
2022/04/15 09:06:59;;;;;;;10.60;5.45;;;;;;;17.63;100.00;100076.59;4819011;29;20041;-85
2022/04/15 09:09:32;;;;;;;11.98;5.43;;;;;;;17.75;100.00;100080.19;4787803;29;20504;-85
2022/04/15 09:12:00;;;;;;;10.57;6.03;;;;;;;17.69;100.00;100081.06;4783987;29;20038;-86
2022/04/15 09:14:26;;;;;;;11.30;5.68;;;;;;;17.64;100.00;100080.88;4799685;29;20034;-85
2022/04/15 09:16:53;;;;;;;10.30;6.22;;;;;;;17.81;100.00;100089.94;4800456;29;20372;-86
2022/04/15 09:19:19;;;;;;;10.60;4.78;;;;;;;17.91;100.00;100086.00;4786146;29;20547;-85
2022/04/15 09:21:52;;;;;;;9.30;4.80;;;;;;;18.03;100.00;100096.78;4781568;29;20043;-85
2022/04/15 09:24:34;;;;;;;7.55;4.78;;;;;;;17.90;100.00;100095.00;4785922;29;20502;-85
2022/04/15 09:27:04;;;;;;;10.70;5.32;;;;;;;17.96;100.00;100094.13;4780472;29;20100;-85
2022/04/15 09:29:38;;;;;;;10.52;4.75;;;;;;;17.90;100.00;100081.72;4784779;29;20045;-86
2022/04/15 09:32:15;;;;;;;8.35;4.25;;;;;;;18.04;100.00;100083.25;4802574;29;20041;-86
2022/04/15 09:34:53;;;;;;;6.90;4.55;;;;;;;18.02;100.00;100111.09;4822102;29;20057;-86
2022/04/15 09:37:20;;;;;;;9.90;4.78;;;;;;;18.16;100.00;100107.25;4816869;29;20086;-87
2022/04/15 09:40:11;;;;;;;7.88;4.75;;;;;;;18.29;100.00;100119.63;4800391;29;20034;-85
2022/04/15 09:42:44;;;;;;;8.52;4.35;;;;;;;18.25;100.00;100108.63;4824233;29;20034;-88
2022/04/15 09:45:14;;;;;;;11.52;5.13;;;;;;;18.19;100.00;100101.53;4808378;29;20026;-88
2022/04/15 09:47:40;;;;;;;9.50;4.28;;;;;;;18.90;100.00;100106.50;4806275;29;20050;-88
2022/04/15 09:50:19;;;;;;;8.38;4.65;;;;;;;19.21;100.00;100101.22;4808759;29;20034;-89
2022/04/15 09:52:45;;;;;;;8.98;5.03;;;;;;;19.48;100.00;100100.84;4791925;29;20043;-90
2022/04/15 09:55:12;;;;;;;7.50;4.93;;;;;;;19.78;100.00;100105.31;4795559;29;20046;-90
2022/04/15 09:57:39;;;;;;;7.40;4.80;;;;;;;19.93;99.76;100095.03;4820930;29;20030;-90
2022/04/15 10:00:10;;;;;;;8.52;4.38;;;;;;;20.16;99.41;100081.97;4786975;30;20059;-90
2022/04/15 10:02:38;;;;;;;9.30;5.18;;;;;;;20.52;98.19;100104.06;4808219;29;20041;-92
2022/04/15 10:05:05;;;;;;;8.68;4.72;;;;;;;20.57;96.07;100093.50;4793586;29;20038;-90
2022/04/15 10:07:33;;;;;;;6.90;4.32;;;;;;;20.42;96.88;100094.00;4792104;29;20034;-90
2022/04/15 10:10:02;;;;;;;5.50;4.45;;;;;;;20.57;95.36;100095.38;4796459;29;20050;-90
2022/04/15 10:12:39;;;;;;;6.53;5.18;;;;;;;20.37;96.45;100092.03;4806859;29;20034;-90
2022/04/15 10:15:10;;;;;;;7.10;5.60;;;;;;;20.22;96.36;100081.03;4801040;29;20035;-87
2022/04/15 10:17:41;;;;;;;8.27;6.18;;;;;;;20.26;99.30;100084.88;4816330;29;20039;-86
2022/04/15 10:20:08;;;;;;;9.18;5.85;;;;;;;20.40;96.55;100093.44;4791042;29;20062;-90
2022/04/15 10:22:37;;;;;;;8.27;7.00;;;;;;;20.42;96.08;100078.00;4811555;29;20039;-86
2022/04/15 10:25:07;;;;;;;9.18;7.28;;;;;;;20.44;95.43;100085.75;4802452;29;20676;-84
2022/04/15 10:27:33;;;;;;;10.32;6.47;;;;;;;20.74;94.97;100088.28;4798914;29;20034;-88
2022/04/15 10:30:04;;;;;;;6.82;6.22;;;;;;;20.56;93.13;100086.56;4802039;29;20099;-88
2022/04/15 10:32:46;;;;;;;6.88;6.13;;;;;;;20.90;94.92;100084.06;4788816;29;20041;-87
2022/04/15 10:35:23;;;;;;;6.68;5.97;;;;;;;21.26;93.04;100068.72;4819910;29;20110;-89
2022/04/15 10:38:01;;;;;;;6.60;5.75;;;;;;;22.08;92.50;100083.63;4786542;29;20050;-88
2022/04/15 10:40:33;;;;;;;8.75;5.50;;;;;;;21.96;89.96;100089.06;4785536;29;20030;-88
2022/04/15 10:43:17;;;;;;;7.95;6.05;;;;;;;21.68;87.40;100077.44;4814000;29;20121;-88
2022/04/15 10:45:44;;;;;;;7.07;5.90;;;;;;;21.57;87.90;100078.28;4796949;29;20062;-87
2022/04/15 10:48:09;;;;;;;8.73;5.15;;;;;;;21.47;84.54;100087.75;4803974;29;20540;-88
2022/04/15 10:50:38;;;;;;;5.70;5.07;;;;;;;21.89;85.34;100067.06;4822169;29;20390;-88
2022/04/15 10:53:23;;;;;;;11.00;5.43;;;;;;;22.14;85.09;100080.00;4802887;29;20046;-87
2022/04/15 10:55:52;;;;;;;6.38;5.78;;;;;;;22.15;84.06;100076.25;4784868;29;20027;-88
2022/04/15 10:58:20;;;;;;;5.97;5.57;;;;;;;22.00;81.50;100084.84;4787904;29;20034;-88
2022/04/15 11:01:20;;;;;;;7.60;5.65;;;;;;;22.06;82.35;100072.38;4804003;29;20038;-87
2022/04/15 11:03:53;;;;;;;6.20;5.60;;;;;;;22.21;83.06;100079.81;4787944;29;20043;-88
2022/04/15 11:06:28;;;;;;;6.72;5.93;;;;;;;21.50;82.44;100059.72;4814016;29;20039;-88
2022/04/15 11:08:55;;;;;;;6.78;6.05;;;;;;;21.07;83.65;100067.28;4803701;29;20126;-89
2022/04/15 11:11:36;;;;;;;6.00;5.50;;;;;;;20.78;82.22;100069.91;4785620;29;20085;-89
2022/04/15 11:14:04;;;;;;;7.25;5.53;;;;;;;20.65;83.46;100053.16;4797987;29;20484;-89
2022/04/15 11:16:50;;;;;;;7.60;5.78;;;;;;;20.47;84.11;100047.97;4797011;29;20026;-89
2022/04/15 11:19:22;;;;;;;9.00;5.40;;;;;;;20.28;81.87;100061.44;4806965;29;20027;-88